Time;durP1;ratioP1;P1;durP2;ratioP2;P2;SDS_P1;SDS_P2;PMS_P1;PMS_P2;Temp;Humidity;BMP_temperature;BMP_pressure;BME280_temperature;BME280_humidity;BME280_pressure;Samples;Min_cycle;Max_cycle;Signal;HPM_P1;HPM_P2
2022/02/23 00:01:11;;;;;;;23.93;15.07;;;;;;;15.53;100.00;99717.80;1712776;82;20989;-63
2022/02/23 00:03:39;;;;;;;17.30;12.70;;;;;;;15.60;100.00;99723.75;1713150;82;21292;-61
2022/02/23 00:06:06;;;;;;;23.23;14.60;;;;;;;15.58;100.00;99721.36;1713059;83;21314;-61
2022/02/23 00:08:34;;;;;;;21.10;13.13;;;;;;;15.61;100.00;99724.05;1712565;82;21113;-63
2022/02/23 00:11:02;;;;;;;21.87;14.53;;;;;;;15.38;100.00;99727.47;1712491;82;21315;-62
2022/02/23 00:13:29;;;;;;;21.10;14.33;;;;;;;15.08;100.00;99734.10;1715884;82;21382;-62
2022/02/23 00:15:56;;;;;;;21.37;12.87;;;;;;;15.03;100.00;99734.75;1713525;82;21745;-61
2022/02/23 00:18:23;;;;;;;19.13;13.20;;;;;;;14.74;100.00;99729.84;1714373;82;21701;-76
2022/02/23 00:20:52;;;;;;;18.33;13.03;;;;;;;15.01;100.00;99726.84;1712391;82;21199;-68
2022/02/23 00:23:20;;;;;;;21.77;14.07;;;;;;;15.37;100.00;99720.59;1713003;82;21415;-62
2022/02/23 00:25:47;;;;;;;22.43;14.70;;;;;;;15.15;100.00;99727.42;1713554;83;21316;-62
2022/02/23 00:28:14;;;;;;;20.67;13.83;;;;;;;15.51;100.00;99714.62;1713657;82;21172;-69
2022/02/23 00:30:42;;;;;;;20.70;14.07;;;;;;;15.39;100.00;99711.99;1712071;82;21181;-68
2022/02/23 00:33:11;;;;;;;21.70;14.17;;;;;;;15.15;100.00;99724.79;1716060;82;21250;-61
2022/02/23 00:35:39;;;;;;;26.37;15.37;;;;;;;15.43;100.00;99710.51;1713038;82;21105;-62
2022/02/23 00:38:06;;;;;;;20.50;13.47;;;;;;;15.60;100.00;99710.61;1713072;82;21049;-78
2022/02/23 00:40:34;;;;;;;19.83;13.73;;;;;;;15.26;100.00;99712.98;1715350;82;21779;-64
2022/02/23 00:43:01;;;;;;;21.67;13.53;;;;;;;15.14;100.00;99722.68;1712297;82;21276;-65
2022/02/23 00:45:28;;;;;;;18.60;13.30;;;;;;;15.26;100.00;99726.13;1716107;82;22346;-62
2022/02/23 00:47:55;;;;;;;22.17;14.77;;;;;;;15.04;100.00;99727.70;1713121;82;21370;-63
2022/02/23 00:50:22;;;;;;;21.57;14.03;;;;;;;15.42;100.00;99723.84;1712740;82;21315;-73
2022/02/23 00:52:50;;;;;;;19.50;12.20;;;;;;;15.64;100.00;99717.52;1713412;83;21382;-66
2022/02/23 00:55:17;;;;;;;20.57;12.67;;;;;;;15.48;100.00;99720.33;1714314;82;21242;-63
2022/02/23 00:57:44;;;;;;;18.07;12.70;;;;;;;15.69;100.00;99725.05;1713313;82;21992;-62
2022/02/23 01:00:12;;;;;;;19.50;13.63;;;;;;;13.99;100.00;99733.24;1713187;82;21332;-64
2022/02/23 01:02:40;;;;;;;22.00;14.63;;;;;;;13.86;100.00;99740.23;1712908;82;21005;-66
2022/02/23 01:05:08;;;;;;;23.50;14.80;;;;;;;13.82;100.00;99740.34;1712764;82;21370;-63
2022/02/23 01:07:35;;;;;;;22.37;13.87;;;;;;;14.13;100.00;99739.95;1716519;82;21260;-65
2022/02/23 01:10:05;;;;;;;21.57;13.97;;;;;;;14.04;100.00;99733.38;1713301;83;21215;-63
2022/02/23 01:12:33;;;;;;;26.30;16.37;;;;;;;14.47;100.00;99725.42;1712920;82;21026;-73
2022/02/23 01:15:01;;;;;;;22.63;14.53;;;;;;;14.68;100.00;99713.66;1712615;82;21317;-62
2022/02/23 01:17:29;;;;;;;22.50;15.40;;;;;;;14.95;100.00;99710.14;1715113;82;21281;-61
2022/02/23 01:19:58;;;;;;;20.90;14.00;;;;;;;14.84;100.00;99701.22;1713223;82;21370;-62
2022/02/23 01:22:25;;;;;;;24.63;16.27;;;;;;;14.51;100.00;99703.53;1713114;82;22085;-64
2022/02/23 01:24:52;;;;;;;21.53;15.90;;;;;;;14.30;100.00;99711.31;1712332;82;21309;-64
2022/02/23 01:27:19;;;;;;;24.17;15.13;;;;;;;14.40;100.00;99719.46;1713382;82;22726;-63
2022/02/23 01:29:47;;;;;;;20.50;14.03;;;;;;;14.54;100.00;99716.17;1713387;82;21043;-60
2022/02/23 01:32:14;;;;;;;20.90;14.57;;;;;;;14.31;100.00;99728.12;1713341;82;21757;-61
2022/02/23 01:34:41;;;;;;;21.67;14.83;;;;;;;13.76;100.00;99733.36;1713069;82;21799;-75
2022/02/23 01:37:08;;;;;;;24.23;15.57;;;;;;;14.00;100.00;99732.22;1712719;82;21644;-64
2022/02/23 01:39:36;;;;;;;22.60;14.57;;;;;;;14.15;100.00;99731.86;1711877;82;21721;-65
2022/02/23 01:42:04;;;;;;;19.80;13.63;;;;;;;14.31;100.00;99737.30;1711543;82;21748;-65
2022/02/23 01:44:32;;;;;;;20.20;14.00;;;;;;;14.35;100.00;99746.31;1713412;82;21260;-65
2022/02/23 01:46:59;;;;;;;20.60;13.80;;;;;;;14.22;100.00;99749.11;1712322;82;21868;-63
2022/02/23 01:49:26;;;;;;;22.37;15.53;;;;;;;14.46;100.00;99751.85;1713390;82;21655;-63
2022/02/23 01:51:53;;;;;;;22.47;14.73;;;;;;;14.33;100.00;99757.55;1712490;82;21732;-64
2022/02/23 01:54:20;;;;;;;21.03;14.00;;;;;;;14.20;100.00;99768.69;1713533;82;21025;-71
2022/02/23 01:56:49;;;;;;;21.77;14.10;;;;;;;14.26;100.00;99759.45;1709832;82;21145;-65
2022/02/23 01:59:17;;;;;;;21.43;15.10;;;;;;;14.34;100.00;99757.04;1709655;82;21306;-63
2022/02/23 02:01:45;;;;;;;22.70;15.60;;;;;;;14.12;100.00;99750.92;1710250;82;21281;-62
2022/02/23 02:04:13;;;;;;;21.53;15.87;;;;;;;14.33;100.00;99749.69;1713299;82;21209;-72
2022/02/23 02:06:40;;;;;;;20.73;14.30;;;;;;;14.31;100.00;99753.54;1716927;82;21291;-61
2022/02/23 02:09:09;;;;;;;21.53;14.67;;;;;;;14.48;100.00;99756.38;1717303;82;21101;-63
2022/02/23 02:11:36;;;;;;;19.73;13.83;;;;;;;14.38;100.00;99754.27;1708220;82;21510;-61
2022/02/23 02:14:03;;;;;;;22.30;14.57;;;;;;;14.64;100.00;99761.56;1707364;82;21144;-61
2022/02/23 02:16:30;;;;;;;23.73;14.37;;;;;;;14.62;100.00;99766.21;1705833;82;21348;-66
2022/02/23 02:18:58;;;;;;;22.13;15.10;;;;;;;14.55;100.00;99771.05;1707539;82;22209;-66
2022/02/23 02:22:01;;;;;;;22.43;14.80;;;;;;;14.56;100.00;99766.59;1706938;82;21731;-62
2022/02/23 02:24:30;;;;;;;22.67;14.37;;;;;;;14.58;100.00;99766.67;1707999;82;21637;-62
2022/02/23 02:26:58;;;;;;;21.43;14.03;;;;;;;14.53;100.00;99767.03;1711013;82;21193;-62
2022/02/23 02:29:25;;;;;;;22.07;13.83;;;;;;;14.50;100.00;99774.02;1707830;82;21316;-63
2022/02/23 02:31:53;;;;;;;20.53;13.30;;;;;;;14.60;100.00;99773.00;1709486;82;21075;-69
2022/02/23 02:34:20;;;;;;;21.30;14.17;;;;;;;14.82;100.00;99767.56;1706839;82;21880;-66
2022/02/23 02:36:48;;;;;;;20.90;12.47;;;;;;;15.12;100.00;99769.38;1707896;82;22052;-60
2022/02/23 02:39:17;;;;;;;20.37;13.43;;;;;;;14.93;100.00;99769.95;1705699;82;21800;-62
2022/02/23 02:41:44;;;;;;;23.00;14.37;;;;;;;14.71;100.00;99767.01;1703512;82;21142;-61
2022/02/23 02:44:12;;;;;;;22.30;15.27;;;;;;;14.67;100.00;99759.81;1705199;82;21333;-64
2022/02/23 02:46:39;;;;;;;22.82;14.40;;;;;;;14.54;100.00;99762.86;1705565;82;21449;-64
2022/02/23 02:49:06;;;;;;;22.73;13.13;;;;;;;14.65;100.00;99758.70;1708021;82;21169;-62
2022/02/23 02:51:33;;;;;;;18.93;13.00;;;;;;;14.71;100.00;99770.14;1705438;82;21374;-61
2022/02/23 02:54:00;;;;;;;25.53;15.20;;;;;;;14.72;100.00;99770.42;1704937;82;21844;-66
2022/02/23 02:56:27;;;;;;;20.43;12.90;;;;;;;14.67;100.00;99762.43;1703080;82;21354;-61
2022/02/23 02:58:55;;;;;;;21.70;14.50;;;;;;;14.48;100.00;99764.25;1706088;82;21298;-63
2022/02/23 03:01:23;;;;;;;21.23;12.97;;;;;;;14.59;100.00;99772.20;1713346;82;21174;-61
2022/02/23 03:03:50;;;;;;;21.47;14.33;;;;;;;14.46;100.00;99775.45;1722729;81;21716;-62
2022/02/23 03:06:17;;;;;;;21.43;14.33;;;;;;;14.44;100.00;99779.63;1715067;82;21271;-64
2022/02/23 03:08:45;;;;;;;27.17;16.15;;;;;;;14.47;100.00;99775.25;1718553;82;22339;-61
2022/02/23 03:11:12;;;;;;;24.97;15.63;;;;;;;14.42;100.00;99772.98;1714048;82;21056;-61
2022/02/23 03:13:39;;;;;;;22.03;14.13;;;;;;;14.41;100.00;99780.57;1712042;83;22373;-66
2022/02/23 03:16:07;;;;;;;21.63;14.67;;;;;;;14.34;100.00;99774.08;1714174;83;21743;-70
2022/02/23 03:18:36;;;;;;;25.10;15.00;;;;;;;14.35;100.00;99765.19;1715328;83;21204;-61
2022/02/23 03:21:03;;;;;;;25.90;16.60;;;;;;;14.33;100.00;99773.80;1715783;83;21326;-61
2022/02/23 03:23:30;;;;;;;24.00;15.00;;;;;;;14.23;100.00;99774.30;1704909;83;21313;-60
2022/02/23 03:25:57;;;;;;;22.13;14.40;;;;;;;14.03;100.00;99771.09;1715414;83;21188;-60
2022/02/23 03:28:24;;;;;;;33.83;17.10;;;;;;;13.98;100.00;99769.61;1714474;83;21246;-61
2022/02/23 03:30:51;;;;;;;25.80;15.77;;;;;;;13.90;100.00;99766.77;1715443;83;21356;-61
2022/02/23 03:33:19;;;;;;;31.43;17.83;;;;;;;13.87;100.00;99774.57;1715689;83;21369;-62
2022/02/23 03:35:46;;;;;;;26.87;16.43;;;;;;;13.85;100.00;99775.28;1715274;83;21086;-64
2022/02/23 03:38:13;;;;;;;28.67;15.90;;;;;;;13.88;100.00;99769.62;1715225;83;21562;-62
2022/02/23 03:40:42;;;;;;;28.20;17.27;;;;;;;14.14;100.00;99778.75;1714794;83;21163;-61
2022/02/23 03:43:09;;;;;;;26.63;16.90;;;;;;;14.20;100.00;99781.80;1714884;83;21216;-60
2022/02/23 03:45:36;;;;;;;28.90;16.97;;;;;;;14.65;100.00;99774.95;1715539;82;21881;-68
2022/02/23 03:48:05;;;;;;;28.57;17.70;;;;;;;14.36;100.00;99773.36;1714485;83;21230;-62
2022/02/23 03:50:33;;;;;;;30.03;17.20;;;;;;;14.34;100.00;99777.50;1714879;83;22091;-61
2022/02/23 03:53:00;;;;;;;31.03;17.27;;;;;;;14.23;100.00;99778.23;1715800;83;21296;-60
2022/02/23 03:55:27;;;;;;;30.10;18.00;;;;;;;14.10;100.00;99777.87;1715062;83;21139;-61
2022/02/23 03:57:55;;;;;;;32.37;18.43;;;;;;;14.12;100.00;99778.44;1714952;83;21199;-61
2022/02/23 04:00:22;;;;;;;27.43;17.23;;;;;;;14.25;100.00;99781.45;1719766;79;21256;-69
2022/02/23 04:02:50;;;;;;;28.13;18.07;;;;;;;13.95;100.00;99787.11;1719690;82;21815;-61
2022/02/23 04:05:17;;;;;;;30.00;18.97;;;;;;;13.82;100.00;99780.15;1720501;83;21372;-63
2022/02/23 04:07:45;;;;;;;30.87;18.57;;;;;;;14.28;100.00;99780.19;1720549;83;21310;-72
2022/02/23 04:10:13;;;;;;;27.83;16.90;;;;;;;14.13;100.00;99785.82;1720172;83;21711;-71
2022/02/23 04:12:40;;;;;;;29.27;18.10;;;;;;;14.28;100.00;99790.19;1721268;83;21170;-61
2022/02/23 04:15:08;;;;;;;32.73;19.00;;;;;;;14.32;100.00;99799.22;1720779;83;21316;-61
2022/02/23 04:17:35;;;;;;;27.80;16.67;;;;;;;14.17;100.00;99804.02;1721995;83;21778;-61
2022/02/23 04:20:03;;;;;;;25.90;16.27;;;;;;;14.28;100.00;99799.84;1720322;83;21251;-62
2022/02/23 04:22:31;;;;;;;22.97;15.67;;;;;;;14.55;100.00;99794.66;1711129;83;21645;-60
2022/02/23 04:24:59;;;;;;;26.37;16.57;;;;;;;14.48;100.00;99799.66;1722003;83;21717;-60
2022/02/23 04:27:26;;;;;;;23.47;15.50;;;;;;;14.46;100.00;99792.50;1721689;83;21368;-61
2022/02/23 04:29:53;;;;;;;22.97;14.63;;;;;;;14.27;100.00;99798.26;1721069;82;21757;-60
2022/02/23 04:32:22;;;;;;;21.67;14.80;;;;;;;14.22;100.00;99810.72;1711852;83;21313;-62
2022/02/23 04:34:49;;;;;;;23.80;15.08;;;;;;;14.29;100.00;99823.76;1721350;83;22461;-61
2022/02/23 04:37:16;;;;;;;25.17;15.97;;;;;;;14.50;100.00;99833.83;1720770;83;20959;-62
2022/02/23 04:39:43;;;;;;;31.43;18.03;;;;;;;14.15;100.00;99832.25;1721137;83;22220;-61
2022/02/23 04:42:10;;;;;;;22.13;15.80;;;;;;;14.23;100.00;99828.03;1720691;83;21269;-67
2022/02/23 04:44:37;;;;;;;22.20;15.23;;;;;;;14.18;100.00;99825.79;1720821;83;21319;-61
2022/02/23 04:47:05;;;;;;;20.50;14.47;;;;;;;14.18;100.00;99837.07;1720708;83;21421;-60
2022/02/23 04:49:32;;;;;;;22.90;15.60;;;;;;;14.44;100.00;99835.20;1721081;83;21756;-61
2022/02/23 04:51:59;;;;;;;20.73;14.33;;;;;;;14.36;100.00;99838.41;1720900;83;21171;-71
2022/02/23 04:54:27;;;;;;;22.57;15.77;;;;;;;14.43;100.00;99838.83;1720541;83;21138;-63
2022/02/23 04:56:54;;;;;;;23.30;16.00;;;;;;;14.36;100.00;99849.41;1721408;83;21260;-60
2022/02/23 04:59:21;;;;;;;21.37;14.33;;;;;;;14.38;100.00;99851.28;1720572;83;21212;-60
2022/02/23 05:01:49;;;;;;;23.93;15.50;;;;;;;14.41;100.00;99860.55;1724767;81;21289;-63
2022/02/23 05:04:17;;;;;;;18.93;14.23;;;;;;;14.47;100.00;99865.73;1751990;80;21183;-73
2022/02/23 05:06:44;;;;;;;23.33;16.00;;;;;;;14.50;100.00;99867.12;1749025;81;21166;-63
2022/02/23 05:09:12;;;;;;;22.50;15.80;;;;;;;14.32;100.00;99874.45;1748263;81;20962;-62
2022/02/23 05:11:42;;;;;;;21.10;14.57;;;;;;;14.33;100.00;99874.23;1740753;81;20950;-63
2022/02/23 05:14:09;;;;;;;21.13;15.03;;;;;;;14.25;100.00;99878.96;1740729;81;21321;-73
2022/02/23 05:16:38;;;;;;;22.13;13.97;;;;;;;13.86;100.00;99890.88;1742502;81;21260;-84
2022/02/23 05:19:05;;;;;;;20.17;15.33;;;;;;;13.83;100.00;99899.16;1741264;81;21433;-61
2022/02/23 05:21:32;;;;;;;19.40;15.10;;;;;;;13.81;100.00;99889.38;1735491;81;21178;-62
2022/02/23 05:23:59;;;;;;;18.23;14.07;;;;;;;14.05;100.00;99885.19;1749483;81;21720;-62
2022/02/23 05:26:26;;;;;;;20.97;14.67;;;;;;;13.91;100.00;99889.43;1736426;81;21112;-63
2022/02/23 05:28:54;;;;;;;19.67;14.33;;;;;;;14.03;100.00;99893.75;1748136;81;21239;-62
2022/02/23 05:31:21;;;;;;;21.03;15.80;;;;;;;14.13;100.00;99891.97;1731456;81;21370;-62
2022/02/23 05:33:50;;;;;;;23.40;15.53;;;;;;;13.99;100.00;99895.71;1742585;81;21044;-60
2022/02/23 05:36:18;;;;;;;20.03;14.53;;;;;;;14.05;100.00;99901.39;1739462;80;21745;-61
2022/02/23 05:38:45;;;;;;;22.63;14.77;;;;;;;14.11;100.00;99908.41;1745222;81;21207;-62
2022/02/23 05:41:12;;;;;;;19.93;14.77;;;;;;;13.86;100.00;99918.38;1749445;81;21352;-62
2022/02/23 05:43:40;;;;;;;19.80;14.87;;;;;;;13.91;100.00;99913.02;1737987;81;21254;-61
2022/02/23 05:46:07;;;;;;;21.10;15.33;;;;;;;13.74;100.00;99912.71;1749966;81;21177;-61
2022/02/23 05:48:34;;;;;;;19.37;13.77;;;;;;;13.70;100.00;99908.91;1748559;80;21277;-73
2022/02/23 05:51:02;;;;;;;18.50;14.67;;;;;;;13.96;100.00;99910.03;1739512;81;21336;-67
2022/02/23 05:53:30;;;;;;;20.13;14.70;;;;;;;13.68;100.00;99913.58;1702893;83;21241;-60
2022/02/23 05:55:57;;;;;;;20.13;14.33;;;;;;;13.94;100.00;99918.63;1704825;83;21353;-62
2022/02/23 05:58:24;;;;;;;20.87;14.83;;;;;;;14.16;100.00;99920.86;1705689;82;21312;-66
2022/02/23 06:00:52;;;;;;;17.77;12.83;;;;;;;14.02;100.00;99924.12;1696026;83;21118;-67
2022/02/23 06:03:19;;;;;;;20.10;14.27;;;;;;;14.29;100.00;99936.50;1683995;84;21400;-62
2022/02/23 06:05:46;;;;;;;21.07;14.47;;;;;;;13.63;100.00;99941.17;1754889;80;22322;-62
2022/02/23 06:08:14;;;;;;;19.20;13.77;;;;;;;13.42;100.00;99940.20;1753516;81;21230;-62
2022/02/23 06:10:41;;;;;;;19.73;14.50;;;;;;;13.44;100.00;99943.91;1753241;81;21707;-74
2022/02/23 06:13:10;;;;;;;19.03;13.60;;;;;;;13.81;100.00;99943.09;1753993;80;21214;-62
2022/02/23 06:15:37;;;;;;;17.10;13.00;;;;;;;13.94;100.00;99940.08;1755196;80;21183;-63
2022/02/23 06:18:06;;;;;;;19.00;13.47;;;;;;;13.89;100.00;99948.58;1754172;80;22070;-63
2022/02/23 06:20:33;;;;;;;19.60;14.03;;;;;;;14.00;100.00;99944.48;1754033;80;21168;-63
2022/02/23 06:23:00;;;;;;;18.77;13.90;;;;;;;14.01;100.00;99957.88;1753159;81;21260;-64
2022/02/23 06:25:28;;;;;;;18.37;12.90;;;;;;;14.31;100.00;99957.53;1754002;81;21318;-63
2022/02/23 06:27:55;;;;;;;18.50;13.87;;;;;;;14.62;100.00;99959.81;1755452;80;21097;-64
2022/02/23 06:30:22;;;;;;;16.60;12.60;;;;;;;14.63;100.00;99961.95;1754062;80;21163;-74
2022/02/23 06:32:49;;;;;;;19.20;14.27;;;;;;;14.89;100.00;99968.24;1753636;80;21125;-65
2022/02/23 06:35:17;;;;;;;19.17;13.37;;;;;;;14.78;100.00;99973.69;1754342;80;21612;-63
2022/02/23 06:37:44;;;;;;;20.67;14.53;;;;;;;14.57;100.00;99972.78;1755399;80;20996;-64
2022/02/23 06:40:12;;;;;;;18.03;14.47;;;;;;;14.77;100.00;99962.91;1742085;80;21131;-64
2022/02/23 06:42:39;;;;;;;22.17;16.13;;;;;;;14.94;100.00;99972.31;1731849;81;21574;-75
2022/02/23 06:45:09;;;;;;;19.90;15.40;;;;;;;15.17;100.00;99971.66;1748624;80;21380;-64
2022/02/23 06:47:36;;;;;;;16.57;12.97;;;;;;;14.97;100.00;99980.27;1749419;81;21393;-66
2022/02/23 06:50:05;;;;;;;19.33;14.40;;;;;;;15.53;100.00;99981.81;1749354;80;21292;-64
2022/02/23 06:52:33;;;;;;;17.80;13.50;;;;;;;15.87;100.00;99982.98;1747854;80;21206;-73
2022/02/23 06:55:01;;;;;;;18.00;13.73;;;;;;;15.87;100.00;99982.98;1725678;81;21331;-77
2022/02/23 06:57:39;;;;;;;16.80;13.53;;;;;;;16.03;100.00;99981.05;1744723;80;21394;-65
2022/02/23 07:00:08;;;;;;;17.63;13.23;;;;;;;16.20;100.00;99977.77;1754509;80;21410;-65
2022/02/23 07:02:35;;;;;;;18.30;13.73;;;;;;;16.18;100.00;99988.52;1744975;81;21566;-67
2022/02/23 07:05:03;;;;;;;17.07;13.27;;;;;;;16.18;100.00;99988.52;1687574;83;21957;-65
2022/02/23 07:07:32;;;;;;;19.50;14.67;;;;;;;16.21;100.00;99993.33;1736991;81;21516;-67
2022/02/23 07:10:00;;;;;;;20.73;15.43;;;;;;;16.41;100.00;99983.00;1728263;81;21462;-66
2022/02/23 07:12:29;;;;;;;18.57;14.23;;;;;;;16.34;98.19;99982.30;1736057;81;21448;-67
2022/02/23 07:14:56;;;;;;;17.83;13.40;;;;;;;16.36;95.43;99986.81;1730484;82;21679;-74
2022/02/23 07:17:24;;;;;;;18.37;14.70;;;;;;;16.36;95.43;99986.81;1738709;81;21836;-67
2022/02/23 07:19:51;;;;;;;20.33;15.20;;;;;;;16.52;95.01;100000.11;1731355;81;21719;-67
2022/02/23 07:22:18;;;;;;;20.07;15.57;;;;;;;16.28;97.62;99988.74;1726247;81;21611;-67
2022/02/23 07:24:47;;;;;;;20.23;14.40;;;;;;;16.28;97.62;99988.74;1729136;81;21773;-72
2022/02/23 07:27:15;;;;;;;20.13;14.87;;;;;;;15.99;100.00;99999.63;1732113;81;21675;-65
2022/02/23 07:29:45;;;;;;;18.93;14.77;;;;;;;16.13;100.00;100004.16;1722065;82;21777;-69
2022/02/23 07:32:12;;;;;;;19.17;15.20;;;;;;;16.19;100.00;100012.98;1722958;81;21728;-67
2022/02/23 07:34:40;;;;;;;19.37;15.13;;;;;;;16.10;100.00;100024.34;1732357;81;22783;-68
2022/02/23 07:37:07;;;;;;;17.27;14.03;;;;;;;15.70;100.00;100029.34;1726138;82;21658;-69
2022/02/23 07:39:38;;;;;;;19.17;15.70;;;;;;;15.49;100.00;100031.88;1725521;81;21809;-68
2022/02/23 07:42:07;;;;;;;22.40;16.62;;;;;;;15.64;100.00;100034.92;1726390;81;21599;-69
2022/02/23 07:44:34;;;;;;;20.23;16.57;;;;;;;15.75;100.00;100038.14;1729415;81;21144;-66
2022/02/23 07:47:02;;;;;;;20.40;16.33;;;;;;;15.71;100.00;100043.55;1723643;81;21687;-70
2022/02/23 07:49:29;;;;;;;21.77;16.27;;;;;;;16.08;100.00;100051.36;1722246;81;22295;-66
2022/02/23 07:51:56;;;;;;;21.53;16.17;;;;;;;16.32;100.00;100048.80;1722286;81;21775;-70
2022/02/23 07:54:23;;;;;;;20.30;16.03;;;;;;;16.35;100.00;100057.03;1726229;81;23080;-66
2022/02/23 07:56:50;;;;;;;20.23;16.13;;;;;;;16.26;96.17;100058.40;1723997;81;21696;-66
2022/02/23 07:59:17;;;;;;;20.40;15.80;;;;;;;16.25;94.25;100056.77;1724353;81;22180;-67
2022/02/23 08:01:45;;;;;;;20.50;15.77;;;;;;;16.32;94.87;100059.31;1721535;81;21809;-70
2022/02/23 08:04:12;;;;;;;20.37;15.40;;;;;;;16.48;90.12;100065.26;1726015;81;21518;-69
2022/02/23 08:06:40;;;;;;;19.10;15.70;;;;;;;16.42;91.20;100065.63;1735448;82;21674;-69
2022/02/23 08:09:09;;;;;;;20.50;15.33;;;;;;;16.51;88.51;100070.05;1734833;81;21502;-68
2022/02/23 08:11:37;;;;;;;22.93;17.30;;;;;;;16.51;89.69;100063.47;1736942;81;22064;-68
2022/02/23 08:14:08;;;;;;;21.03;14.97;;;;;;;16.32;92.05;100075.09;1731098;81;21675;-70
2022/02/23 08:19:37;;;;;;;21.70;15.90;;;;;;;16.71;83.33;100075.81;1734838;82;21027;-68
2022/02/23 08:22:13;;;;;;;23.03;16.90;;;;;;;16.69;80.41;100079.17;1734548;81;21586;-70
2022/02/23 08:24:46;;;;;;;22.13;16.93;;;;;;;16.40;78.90;100080.86;1696427;84;21179;-70
2022/02/23 08:27:17;;;;;;;21.13;16.50;;;;;;;15.94;80.26;100081.48;1735967;81;21498;-68
2022/02/23 08:29:46;;;;;;;21.33;15.53;;;;;;;15.84;77.88;100087.80;1736647;81;22060;-67
2022/02/23 08:32:16;;;;;;;22.65;16.55;;;;;;;15.86;78.84;100090.99;1735724;81;21550;-71
2022/02/23 08:34:45;;;;;;;20.67;16.13;;;;;;;15.82;81.40;100095.89;1736643;82;21690;-69
2022/02/23 08:37:12;;;;;;;22.10;17.00;;;;;;;16.02;82.66;100098.26;1735599;81;22147;-70
2022/02/23 08:39:40;;;;;;;18.23;15.63;;;;;;;16.02;82.66;100098.26;1703523;82;21504;-69
2022/02/23 08:42:10;;;;;;;20.60;15.67;;;;;;;16.44;85.48;100094.33;1728912;81;21649;-69
2022/02/23 08:44:38;;;;;;;18.37;14.57;;;;;;;16.71;86.05;100098.70;1739924;81;21590;-69
2022/02/23 08:47:05;;;;;;;21.40;16.73;;;;;;;17.59;77.48;100103.04;1735817;81;21607;-68
2022/02/23 08:49:34;;;;;;;20.10;14.87;;;;;;;17.59;77.48;100103.04;1729718;81;21049;-69
2022/02/23 08:52:01;;;;;;;19.20;15.40;;;;;;;17.99;69.89;100089.06;1736392;82;21044;-70
2022/02/23 08:54:28;;;;;;;20.93;14.97;;;;;;;18.06;68.27;100098.95;1736390;81;20979;-70
2022/02/23 08:56:56;;;;;;;17.90;13.83;;;;;;;18.35;67.39;100090.50;1738915;81;20891;-70
2022/02/23 08:59:23;;;;;;;16.23;12.87;;;;;;;18.53;65.09;100092.13;1695159;83;21567;-67
2022/02/23 09:01:51;;;;;;;16.33;13.17;;;;;;;19.04;62.56;100088.96;1725828;81;21013;-67
2022/02/23 09:04:18;;;;;;;16.73;13.37;;;;;;;19.30;59.18;100086.67;1739731;80;21058;-68
2022/02/23 09:06:47;;;;;;;16.47;13.20;;;;;;;19.64;57.42;100084.22;1750898;80;20927;-69
2022/02/23 09:09:15;;;;;;;14.13;11.60;;;;;;;20.12;54.32;100087.91;1746813;81;21448;-69
2022/02/23 09:11:44;;;;;;;16.43;12.37;;;;;;;20.34;53.02;100094.47;1746029;81;22844;-68
2022/02/23 09:14:12;;;;;;;15.97;12.20;;;;;;;20.68;51.21;100090.78;1742521;81;20932;-66
2022/02/23 09:16:39;;;;;;;15.63;12.27;;;;;;;20.84;48.30;100088.00;1749465;81;20863;-67
2022/02/23 09:19:07;;;;;;;13.07;10.63;;;;;;;20.74;47.14;100095.08;1745998;81;20975;-68
2022/02/23 09:21:34;;;;;;;13.23;11.07;;;;;;;20.53;46.72;100078.22;1736865;81;20985;-68
2022/02/23 09:24:02;;;;;;;12.33;10.20;;;;;;;20.46;46.10;100091.66;1746310;81;21150;-67
2022/02/23 09:26:30;;;;;;;12.50;9.87;;;;;;;20.73;46.99;100094.28;1723855;81;21484;-68
2022/02/23 09:28:57;;;;;;;13.70;10.60;;;;;;;20.97;46.15;100095.23;1743723;81;20920;-67
2022/02/23 09:31:24;;;;;;;12.63;10.13;;;;;;;21.30;45.00;100095.42;1743698;81;20953;-67
2022/02/23 09:33:54;;;;;;;13.50;9.03;;;;;;;21.68;43.87;100102.78;1738888;81;21029;-67
2022/02/23 09:36:21;;;;;;;11.70;9.30;;;;;;;22.01;42.55;100092.23;1703743;82;21153;-67
2022/02/23 09:38:49;;;;;;;11.93;9.70;;;;;;;22.17;41.77;100093.11;1704059;82;21008;-64
2022/02/23 09:41:18;;;;;;;11.87;9.60;;;;;;;22.26;41.11;100091.52;1711763;83;20977;-68
2022/02/23 09:43:52;;;;;;;11.73;9.77;;;;;;;22.10;41.32;100100.76;1739453;81;21586;-68
2022/02/23 09:46:18;;;;;;;12.20;10.60;;;;;;;22.08;41.02;100106.05;1740770;80;21055;-65
2022/02/23 09:48:49;;;;;;;12.30;10.10;;;;;;;21.85;40.33;100105.47;1682161;83;21080;-66
2022/02/23 09:51:16;;;;;;;12.07;9.63;;;;;;;;;;1708520;83;21407;-67
2022/02/23 09:53:49;;;;;;;12.87;10.60;;;;;;;21.81;39.70;100116.88;1708703;83;20956;-65
2022/02/23 09:56:18;;;;;;;11.03;8.97;;;;;;;21.35;39.40;100128.08;1704829;83;20989;-65
2022/02/23 09:58:46;;;;;;;11.57;9.20;;;;;;;21.24;39.67;100122.95;1690323;83;21000;-70
2022/02/23 10:01:14;;;;;;;11.60;8.83;;;;;;;20.85;39.84;100127.22;1690453;83;21105;-70
2022/02/23 10:03:44;;;;;;;11.10;9.23;;;;;;;20.46;40.67;100120.78;1693530;83;21099;-68
2022/02/23 10:06:33;;;;;;;12.80;10.23;;;;;;;20.39;40.05;100124.16;1709043;83;21047;-69
2022/02/23 10:09:06;;;;;;;13.47;10.50;;;;;;;20.27;40.42;100122.99;1703612;83;21134;-66
2022/02/23 10:11:35;;;;;;;12.57;10.10;;;;;;;19.55;41.30;100131.95;1754007;81;20984;-68
2022/02/23 10:14:03;;;;;;;11.77;9.10;;;;;;;19.30;41.96;100128.44;1751536;80;21140;-69
2022/02/23 10:16:36;;;;;;;11.57;9.27;;;;;;;19.25;42.59;100121.77;1755748;80;20983;-69
2022/02/23 10:19:16;;;;;;;11.40;9.67;;;;;;;19.24;43.18;100120.67;1754082;81;21137;-69
2022/02/23 10:21:59;;;;;;;14.90;10.00;;;;;;;19.67;43.13;100125.25;1756801;81;20951;-68
2022/02/23 10:24:34;;;;;;;12.60;9.53;;;;;;;20.06;41.96;100121.97;1727804;81;21587;-68
2022/02/23 10:27:06;;;;;;;12.50;9.00;;;;;;;20.49;41.32;100124.76;1746748;81;21766;-68
2022/02/23 10:29:54;;;;;;;13.33;8.63;;;;;;;20.70;39.87;100123.92;1716828;81;37742;-68
2022/02/23 10:32:25;;;;;;;11.33;8.20;;;;;;;21.03;38.64;100122.05;1746095;81;20943;-68
2022/02/23 10:34:55;;;;;;;10.55;7.53;;;;;;;20.71;37.77;100126.04;1706963;83;21070;-67
2022/02/23 10:37:23;;;;;;;10.73;7.67;;;;;;;20.83;38.04;100118.17;1750538;81;20914;-68
2022/02/23 10:40:00;;;;;;;11.57;7.93;;;;;;;21.10;38.20;100120.77;1709492;83;21173;-69
2022/02/23 10:42:33;;;;;;;10.27;7.80;;;;;;;21.46;37.27;100122.31;1749004;81;21113;-66
2022/02/23 10:45:02;;;;;;;12.20;8.07;;;;;;;21.39;36.96;100123.06;1710312;82;21062;-67
2022/02/23 10:47:37;;;;;;;10.10;7.60;;;;;;;21.33;36.58;100121.46;1686172;84;20989;-67
2022/02/23 10:50:11;;;;;;;12.57;8.10;;;;;;;21.36;36.52;100122.25;1748575;81;21010;-69
2022/02/23 10:52:46;;;;;;;13.57;8.80;;;;;;;21.51;35.79;100126.83;1753728;81;21407;-68
2022/02/23 10:55:22;;;;;;;13.43;8.73;;;;;;;21.09;35.30;100121.01;1752529;81;21093;-68
2022/02/23 10:57:54;;;;;;;10.80;7.97;;;;;;;20.63;35.95;100134.72;1702554;83;21495;-69
2022/02/23 11:00:35;;;;;;;13.63;8.93;;;;;;;20.50;36.23;100129.06;1711245;83;21376;-68
2022/02/23 11:03:04;;;;;;;12.50;9.65;;;;;;;20.41;36.94;100124.16;1742971;81;21528;-68
2022/02/23 11:05:33;;;;;;;11.80;8.40;;;;;;;20.76;36.32;100126.89;1748636;81;21052;-69
2022/02/23 11:08:04;;;;;;;12.33;7.77;;;;;;;20.78;35.96;100131.39;1740423;81;21014;-70
2022/02/23 11:10:32;;;;;;;10.08;7.90;;;;;;;20.48;35.84;100126.61;1740942;81;21052;-70
2022/02/23 11:12:59;;;;;;;10.27;7.57;;;;;;;20.53;35.94;100132.00;1744145;81;21537;-68
2022/02/23 11:15:29;;;;;;;10.43;7.33;;;;;;;20.60;36.04;100135.22;1747699;81;21096;-69
2022/02/23 11:17:57;;;;;;;10.00;7.10;;;;;;;20.49;35.80;100130.88;1749183;81;21159;-68
2022/02/23 11:20:27;;;;;;;11.20;7.73;;;;;;;20.36;35.95;100121.48;1729005;81;21008;-69